Time;durP1;ratioP1;P1;durP2;ratioP2;P2;SDS_P1;SDS_P2;PMS_P1;PMS_P2;Temp;Humidity;BMP_temperature;BMP_pressure;BME280_temperature;BME280_humidity;BME280_pressure;Samples;Min_cycle;Max_cycle;Signal;HPM_P1;HPM_P2
2022/09/13 00:01:51;;;;;;;;;2.33;2.33;;;;;22.88;48.38;100712.55;110420;1264;13047;-73
2022/09/13 00:04:18;;;;;;;;;2.00;2.00;;;;;22.88;48.35;100705.45;110421;1265;14743;-71
2022/09/13 00:06:46;;;;;;;;;3.00;3.00;;;;;22.89;48.36;100700.67;110427;1264;18082;-72
2022/09/13 00:09:14;;;;;;;;;2.67;2.67;;;;;22.88;48.37;100698.00;110470;1264;14180;-71
2022/09/13 00:11:41;;;;;;;;;3.00;3.00;;;;;22.87;48.41;100693.19;110446;1264;13204;-71
2022/09/13 00:14:09;;;;;;;;;2.00;2.00;;;;;22.88;48.38;100690.86;110510;1264;12611;-71
2022/09/13 00:16:37;;;;;;;;;3.00;3.00;;;;;22.87;48.34;100690.59;110444;1265;12365;-71
2022/09/13 00:19:04;;;;;;;;;3.00;2.67;;;;;22.89;48.31;100688.09;110450;1265;14323;-71
2022/09/13 00:21:31;;;;;;;;;4.00;3.00;;;;;22.89;48.38;100687.35;110439;1263;14293;-71
2022/09/13 00:23:59;;;;;;;;;2.00;2.00;;;;;22.89;48.35;100687.38;110418;1264;13965;-72
2022/09/13 00:26:26;;;;;;;;;3.00;3.00;;;;;22.88;48.37;100686.32;110357;1264;13682;-71
2022/09/13 00:28:54;;;;;;;;;5.00;3.00;;;;;22.88;48.32;100686.85;110439;1265;13310;-72
2022/09/13 00:31:22;;;;;;;;;2.00;2.00;;;;;22.87;48.35;100680.62;110433;1265;13221;-72
2022/09/13 00:33:50;;;;;;;;;2.00;2.00;;;;;22.89;48.36;100680.61;110421;1264;14596;-72
2022/09/13 00:36:17;;;;;;;;;2.00;2.00;;;;;22.88;48.28;100675.39;110437;1265;14634;-71
2022/09/13 00:38:45;;;;;;;;;2.00;2.00;;;;;22.88;48.35;100675.63;110439;1264;15543;-71
2022/09/13 00:41:12;;;;;;;;;3.00;3.00;;;;;22.87;48.35;100672.08;110482;1264;13098;-72
2022/09/13 00:43:40;;;;;;;;;2.00;2.00;;;;;22.85;48.34;100666.95;110474;1264;12598;-72
2022/09/13 00:46:07;;;;;;;;;3.00;3.00;;;;;22.86;48.35;100669.97;110440;1264;23613;-71
2022/09/13 00:48:35;;;;;;;;;2.00;2.00;;;;;22.87;48.35;100668.11;110426;1264;14649;-72
2022/09/13 00:51:02;;;;;;;;;2.67;2.67;;;;;22.87;48.38;100668.60;110481;1262;13363;-72
2022/09/13 00:53:30;;;;;;;;;2.00;2.00;;;;;22.87;48.33;100664.98;110330;1262;13591;-72
2022/09/13 00:55:57;;;;;;;;;3.00;3.00;;;;;22.86;48.32;100664.49;110373;1262;12708;-68
2022/09/13 00:58:24;;;;;;;;;2.00;2.00;;;;;22.87;48.30;100659.84;110457;1262;14322;-69
2022/09/13 01:00:52;;;;;;;;;3.00;2.33;;;;;22.87;48.33;100658.41;110413;1262;16569;-69
2022/09/13 01:03:19;;;;;;;;;1.67;1.67;;;;;22.87;48.33;100655.38;110419;1265;13695;-70
2022/09/13 01:05:46;;;;;;;;;2.00;2.00;;;;;22.86;48.30;100654.86;110395;1264;19391;-70
2022/09/13 01:08:21;;;;;;;;;2.33;2.33;;;;;22.87;48.32;100650.96;110488;1265;12721;-72
2022/09/13 01:10:49;;;;;;;;;2.00;2.00;;;;;22.86;48.30;100644.30;110496;1265;13249;-72
2022/09/13 01:13:17;;;;;;;;;2.00;2.00;;;;;22.85;48.41;100648.11;110452;1264;15918;-72
2022/09/13 01:15:44;;;;;;;;;2.00;2.00;;;;;22.84;48.41;100649.58;110449;1264;13823;-72
2022/09/13 01:18:12;;;;;;;;;2.67;2.67;;;;;22.85;48.37;100646.22;110460;1264;14272;-70
2022/09/13 01:20:39;;;;;;;;;2.00;2.00;;;;;22.86;48.22;100643.97;110441;1264;14789;-72
2022/09/13 01:23:06;;;;;;;;;2.67;2.67;;;;;22.85;48.30;100642.95;110480;1264;13080;-72
2022/09/13 01:25:33;;;;;;;;;2.00;2.00;;;;;22.85;48.35;100641.27;110367;1264;14240;-71
2022/09/13 01:28:01;;;;;;;;;2.00;2.00;;;;;22.86;48.28;100641.40;110439;1263;14202;-73
2022/09/13 01:30:28;;;;;;;;;2.67;2.67;;;;;22.85;48.32;100638.41;110434;1264;14089;-70
2022/09/13 01:32:56;;;;;;;;;2.00;2.00;;;;;22.84;48.31;100632.31;110292;1263;12980;-71
2022/09/13 01:35:24;;;;;;;;;2.00;2.00;;;;;22.84;48.37;100631.09;110483;1263;14086;-72
2022/09/13 01:37:52;;;;;;;;;2.50;2.00;;;;;22.83;48.32;100631.23;110515;1265;12973;-71
2022/09/13 01:40:19;;;;;;;;;5.00;3.00;;;;;22.83;48.32;100631.21;110444;1264;14681;-72
2022/09/13 01:42:47;;;;;;;;;3.67;3.67;;;;;22.83;48.35;100632.80;110426;1264;13923;-70
2022/09/13 01:45:14;;;;;;;;;2.00;2.00;;;;;22.84;48.26;100630.50;110302;1265;14889;-69
2022/09/13 01:47:41;;;;;;;;;2.00;2.00;;;;;22.84;48.26;100631.63;110413;1265;13416;-69
2022/09/13 01:50:08;;;;;;;;;2.00;2.00;;;;;22.84;48.25;100632.68;110453;1264;13099;-70
2022/09/13 01:52:36;;;;;;;;;3.00;2.00;;;;;22.83;48.25;100630.45;110429;1264;13131;-71
2022/09/13 01:55:03;;;;;;;;;2.33;2.33;;;;;22.85;48.26;100629.70;110423;1264;13450;-71
2022/09/13 01:57:31;;;;;;;;;2.00;2.00;;;;;22.85;48.30;100627.34;110381;1263;12998;-71
2022/09/13 01:59:59;;;;;;;;;4.33;4.33;;;;;22.85;48.23;100629.20;110434;1264;12911;-71
2022/09/13 02:02:26;;;;;;;;;2.00;2.00;;;;;22.84;48.23;100625.79;110408;1264;12897;-71
2022/09/13 02:04:54;;;;;;;;;2.00;2.00;;;;;22.84;48.27;100622.92;110423;1264;12867;-72
2022/09/13 02:07:23;;;;;;;;;2.00;2.00;;;;;22.83;48.23;100623.50;110438;1264;12588;-71
2022/09/13 02:09:50;;;;;;;;;3.00;3.00;;;;;22.83;48.19;100625.32;110427;1264;13646;-69
2022/09/13 02:12:17;;;;;;;;;3.00;2.67;;;;;22.83;48.16;100620.98;110476;1264;12923;-71
2022/09/13 02:14:44;;;;;;;;;2.00;2.00;;;;;22.83;48.21;100618.59;110461;1264;13390;-69
2022/09/13 02:17:12;;;;;;;;;3.00;3.00;;;;;22.83;48.24;100612.69;110491;1264;12399;-72
2022/09/13 02:19:39;;;;;;;;;2.33;2.00;;;;;22.83;48.19;100612.14;110444;1264;13188;-71
2022/09/13 02:22:06;;;;;;;;;2.67;2.67;;;;;22.82;48.24;100603.30;110450;1264;14126;-71
2022/09/13 02:24:34;;;;;;;;;4.00;3.00;;;;;22.82;48.17;100600.54;110458;1264;13365;-71
2022/09/13 02:27:01;;;;;;;;;4.00;4.00;;;;;22.84;48.22;100597.99;110472;1264;13447;-71
2022/09/13 02:29:28;;;;;;;;;3.00;3.00;;;;;22.82;48.19;100596.36;110451;1265;13195;-71
2022/09/13 02:31:56;;;;;;;;;2.00;2.00;;;;;22.83;48.22;100596.66;110482;1265;11984;-71
2022/09/13 02:34:24;;;;;;;;;2.00;2.00;;;;;22.83;48.21;100594.66;110442;1264;13289;-71
2022/09/13 02:36:51;;;;;;;;;3.00;3.00;;;;;22.83;48.20;100588.40;110438;1264;13429;-72
2022/09/13 02:39:19;;;;;;;;;2.50;2.50;;;;;22.82;48.22;100591.75;110432;1265;13571;-71
2022/09/13 02:41:46;;;;;;;;;2.00;2.00;;;;;22.82;48.15;100591.61;110441;1264;13423;-71
2022/09/13 02:44:13;;;;;;;;;2.00;2.00;;;;;22.82;48.18;100589.22;110472;1265;12795;-72
2022/09/13 02:46:41;;;;;;;;;2.67;2.00;;;;;22.82;48.19;100585.95;110466;1263;13240;-70
2022/09/13 02:49:08;;;;;;;;;2.00;2.00;;;;;22.82;48.19;100584.20;110424;1264;13144;-72
2022/09/13 02:51:36;;;;;;;;;4.33;3.00;;;;;22.82;48.19;100582.02;110463;1264;12618;-72
2022/09/13 02:54:04;;;;;;;;;2.00;2.00;;;;;22.81;48.23;100578.58;110464;1264;13489;-71
2022/09/13 02:56:31;;;;;;;;;4.33;2.33;;;;;22.81;48.23;100578.36;110464;1264;13280;-71
2022/09/13 02:58:58;;;;;;;;;3.00;2.00;;;;;22.82;48.18;100577.65;110498;1264;12610;-71
2022/09/13 03:01:26;;;;;;;;;3.00;3.00;;;;;22.81;48.17;100571.00;110470;1264;13257;-71
2022/09/13 03:03:53;;;;;;;;;2.00;2.00;;;;;22.81;48.21;100570.08;110420;1264;12953;-72
2022/09/13 03:06:21;;;;;;;;;3.00;3.00;;;;;22.82;48.14;100568.19;110450;1264;14405;-71
2022/09/13 03:08:48;;;;;;;;;3.00;3.00;;;;;22.82;48.13;100564.70;110447;1264;14340;-71
2022/09/13 03:11:17;;;;;;;;;3.00;3.00;;;;;22.83;48.08;100564.36;110485;1264;13062;-71
2022/09/13 03:13:44;;;;;;;;;2.67;2.67;;;;;22.82;48.05;100559.02;110443;1264;14067;-72
2022/09/13 03:16:12;;;;;;;;;3.00;3.00;;;;;22.82;48.06;100554.96;110492;1262;14246;-71
2022/09/13 03:18:40;;;;;;;;;5.00;2.50;;;;;22.82;48.00;100553.44;110491;1262;14331;-71
2022/09/13 03:21:07;;;;;;;;;2.00;2.00;;;;;22.81;48.08;100545.27;110470;1262;17276;-71
2022/09/13 03:23:35;;;;;;;;;4.33;4.33;;;;;22.81;48.00;100540.89;110457;1262;14072;-70
2022/09/13 03:26:02;;;;;;;;;3.00;3.00;;;;;22.81;48.03;100535.48;110536;1262;12606;-72
2022/09/13 03:28:30;;;;;;;;;3.00;3.00;;;;;22.81;48.01;100532.58;110505;1261;14113;-72
2022/09/13 03:30:57;;;;;;;;;3.00;3.00;;;;;22.81;47.98;100526.56;110481;1262;13457;-70
2022/09/13 03:33:24;;;;;;;;;2.33;2.33;;;;;22.80;48.03;100525.55;110503;1262;13763;-70
2022/09/13 03:35:51;;;;;;;;;2.00;2.00;;;;;22.80;47.94;100527.45;110459;1264;14043;-72
2022/09/13 03:38:19;;;;;;;;;2.00;2.00;;;;;22.79;47.93;100518.41;110627;1262;13672;-72
2022/09/13 03:40:48;;;;;;;;;2.00;2.00;;;;;22.79;47.92;100522.44;110656;1262;13513;-71
2022/09/13 03:43:16;;;;;;;;;3.00;2.00;;;;;22.79;47.90;100521.30;110605;1262;13072;-71
2022/09/13 03:45:43;;;;;;;;;3.67;3.00;;;;;22.79;47.91;100518.23;110414;1264;15169;-71
2022/09/13 03:48:11;;;;;;;;;2.00;2.00;;;;;22.79;47.84;100512.61;110422;1264;13225;-71
2022/09/13 03:50:38;;;;;;;;;2.00;2.00;;;;;22.78;47.84;100506.84;110444;1264;14908;-71
2022/09/13 03:53:06;;;;;;;;;2.33;2.33;;;;;22.78;47.83;100507.05;110478;1264;13375;-71
2022/09/13 03:55:33;;;;;;;;;4.33;4.33;;;;;22.78;47.87;100501.95;110442;1263;14619;-72
2022/09/13 03:58:01;;;;;;;;;3.00;3.00;;;;;22.78;47.84;100500.48;110465;1264;12882;-72
2022/09/13 04:00:28;;;;;;;;;3.00;3.00;;;;;22.77;47.81;100496.27;110402;1264;13897;-72
2022/09/13 04:02:56;;;;;;;;;3.00;2.00;;;;;22.77;47.86;100493.20;110346;1264;12875;-69
2022/09/13 04:05:23;;;;;;;;;3.00;3.00;;;;;22.77;47.75;100489.33;110483;1264;17115;-69
2022/09/13 04:07:51;;;;;;;;;3.00;2.00;;;;;22.76;47.72;100486.85;110496;1264;13167;-71
2022/09/13 04:10:18;;;;;;;;;2.00;2.00;;;;;22.76;47.73;100487.05;110433;1264;12744;-71
2022/09/13 04:12:45;;;;;;;;;2.50;2.50;;;;;22.76;47.71;100485.78;110458;1264;13008;-72
2022/09/13 04:15:13;;;;;;;;;2.00;2.00;;;;;22.76;47.71;100484.69;110443;1264;14372;-72
2022/09/13 04:17:40;;;;;;;;;2.00;2.00;;;;;22.76;47.61;100482.55;110444;1263;14320;-71
2022/09/13 04:20:08;;;;;;;;;3.00;3.00;;;;;22.76;47.64;100478.73;110482;1264;13017;-71
2022/09/13 04:22:35;;;;;;;;;3.00;2.00;;;;;22.76;47.65;100472.04;110455;1264;14017;-71
2022/09/13 04:25:04;;;;;;;;;5.00;3.00;;;;;22.76;47.61;100479.77;110441;1262;14222;-71
2022/09/13 04:27:31;;;;;;;;;3.00;2.67;;;;;22.76;47.57;100482.88;110400;1264;13829;-71
2022/09/13 04:29:59;;;;;;;;;3.67;3.00;;;;;22.76;47.59;100484.90;110456;1265;13136;-72
2022/09/13 04:32:26;;;;;;;;;3.00;3.00;;;;;22.76;47.56;100486.37;110426;1264;14361;-71
2022/09/13 04:34:54;;;;;;;;;2.00;2.00;;;;;22.77;47.57;100490.27;110444;1264;12957;-71
2022/09/13 04:37:22;;;;;;;;;5.00;3.00;;;;;22.77;47.52;100488.23;110448;1264;16533;-71
2022/09/13 04:39:50;;;;;;;;;2.00;2.00;;;;;22.77;47.57;100491.31;110394;1264;14582;-72
2022/09/13 04:42:18;;;;;;;;;2.00;2.00;;;;;22.77;47.55;100488.26;110419;1264;14429;-72
2022/09/13 04:44:48;;;;;;;;;2.00;2.00;;;;;22.76;47.56;100485.45;110439;1264;13224;-71
2022/09/13 04:47:15;;;;;;;;;3.00;3.00;;;;;22.77;47.56;100483.90;110450;1264;12918;-72
2022/09/13 04:49:43;;;;;;;;;3.00;3.00;;;;;22.77;47.57;100481.76;110408;1264;13439;-71
2022/09/13 04:52:10;;;;;;;;;3.00;2.33;;;;;22.79;47.65;100475.23;110453;1265;13778;-71
2022/09/13 04:54:37;;;;;;;;;3.00;3.00;;;;;22.82;47.95;100473.36;110445;1264;15123;-71
2022/09/13 04:57:05;;;;;;;;;3.00;3.00;;;;;22.82;48.11;100472.45;110354;1263;13897;-71
2022/09/13 04:59:32;;;;;;;;;3.00;3.00;;;;;22.85;48.57;100471.71;110396;1265;14364;-71
2022/09/13 05:02:00;;;;;;;;;5.00;5.00;;;;;22.86;48.86;100474.13;110441;1264;12786;-72
2022/09/13 05:04:27;;;;;;;;;3.00;3.00;;;;;22.87;49.21;100469.51;110403;1264;14871;-72
2022/09/13 05:06:55;;;;;;;;;2.00;2.00;;;;;22.88;49.41;100468.64;110397;1264;14709;-72
2022/09/13 05:09:22;;;;;;;;;2.00;2.00;;;;;22.90;49.35;100469.89;110448;1265;14273;-71
2022/09/13 05:11:50;;;;;;;;;3.00;3.00;;;;;22.88;49.57;100465.23;110369;1264;14460;-71
2022/09/13 05:14:17;;;;;;;;;2.00;2.00;;;;;22.88;49.52;100465.88;110457;1264;12125;-71
2022/09/13 05:16:45;;;;;;;;;4.33;4.33;;;;;22.89;49.51;100463.41;109701;1264;960121;-71
2022/09/13 05:19:12;;;;;;;;;2.00;2.00;;;;;22.89;49.47;100455.92;110412;1264;14440;-70
2022/09/13 05:21:40;;;;;;;;;3.67;3.00;;;;;22.93;49.75;100458.65;110404;1265;14634;-70
2022/09/13 05:24:07;;;;;;;;;2.00;2.00;;;;;22.97;49.95;100459.23;110344;1264;14880;-71
2022/09/13 05:26:35;;;;;;;;;3.67;3.00;;;;;22.98;49.87;100459.18;110346;1265;13242;-71
2022/09/13 05:29:02;;;;;;;;;5.33;3.00;;;;;23.01;50.34;100461.12;110429;1265;14969;-70
2022/09/13 05:31:30;;;;;;;;;3.00;3.00;;;;;23.02;50.37;100456.96;110335;1264;13342;-69
2022/09/13 05:33:57;;;;;;;;;3.00;3.00;;;;;23.02;50.45;100458.14;110453;1264;14099;-72
2022/09/13 05:36:25;;;;;;;;;3.67;3.67;;;;;23.04;50.46;100460.38;110367;1265;14342;-72
2022/09/13 05:38:52;;;;;;;;;4.33;4.33;;;;;23.07;50.35;100461.41;110422;1265;14093;-72
2022/09/13 05:41:20;;;;;;;;;4.33;3.00;;;;;23.09;50.47;100460.37;110434;1264;12384;-71
2022/09/13 05:43:47;;;;;;;;;3.00;3.00;;;;;23.11;50.47;100456.13;110397;1263;14184;-72
2022/09/13 05:46:15;;;;;;;;;3.00;3.00;;;;;23.12;50.55;100453.98;110198;1264;14711;-70
2022/09/13 05:48:43;;;;;;;;;4.33;3.00;;;;;23.12;50.41;100455.09;110310;1264;13430;-74
2022/09/13 05:51:11;;;;;;;;;3.00;3.00;;;;;23.09;50.36;100449.89;110345;1264;14637;-69
2022/09/13 05:53:39;;;;;;;;;3.00;3.00;;;;;23.08;50.35;100446.23;110416;1264;13510;-70
2022/09/13 05:56:07;;;;;;;;;3.00;3.00;;;;;23.06;50.28;100446.04;110438;1264;13793;-70
2022/09/13 05:58:35;;;;;;;;;3.00;2.67;;;;;23.06;50.13;100442.96;110345;1264;12717;-68
2022/09/13 06:01:02;;;;;;;;;5.00;5.00;;;;;23.05;50.09;100437.20;110436;1264;14058;-70
2022/09/13 06:03:29;;;;;;;;;2.00;2.00;;;;;23.04;50.08;100434.42;110360;1263;13087;-71
2022/09/13 06:05:57;;;;;;;;;3.00;3.00;;;;;23.06;50.04;100433.71;110440;1263;13468;-70
2022/09/13 06:08:25;;;;;;;;;2.00;2.00;;;;;23.11;50.07;100430.97;110407;1262;13983;-71
2022/09/13 06:10:52;;;;;;;;;2.00;2.00;;;;;23.12;49.94;100434.02;110450;1264;12890;-72
2022/09/13 06:13:20;;;;;;;;;3.00;3.00;;;;;23.10;49.91;100430.01;110454;1264;15182;-72
2022/09/13 06:15:47;;;;;;;;;4.33;3.00;;;;;23.11;49.95;100425.09;110288;1263;14032;-74
2022/09/13 06:18:15;;;;;;;;;28.50;22.00;;;;;23.13;49.87;100417.08;110231;1265;13609;-73
2022/09/13 06:20:42;;;;;;;;;68.67;54.00;;;;;23.14;49.86;100416.80;110264;1264;13797;-70
2022/09/13 06:23:10;;;;;;;;;86.67;63.00;;;;;23.11;49.85;100418.99;110402;1263;11209;-70
2022/09/13 06:25:37;;;;;;;;;62.50;44.00;;;;;23.12;49.85;100421.53;110309;1264;15640;-71
2022/09/13 06:28:05;;;;;;;;;38.33;32.33;;;;;23.12;49.91;100416.80;110357;1265;13448;-72
2022/09/13 06:30:33;;;;;;;;;28.00;23.50;;;;;23.13;49.88;100420.77;110337;1264;16754;-73
2022/09/13 06:33:01;;;;;;;;;27.33;23.67;;;;;23.13;49.97;100426.51;110353;1263;13039;-71
2022/09/13 06:35:28;;;;;;;;;21.50;20.00;;;;;23.14;50.09;100419.36;110359;1264;13241;-72
2022/09/13 06:37:57;;;;;;;;;18.50;17.50;;;;;23.15;50.08;100418.48;110399;1262;15036;-71
2022/09/13 06:40:24;;;;;;;;;16.67;16.00;;;;;23.16;49.99;100420.20;110353;1264;14312;-73
2022/09/13 06:42:52;;;;;;;;;18.00;16.00;;;;;23.16;49.91;100416.63;110381;1265;15109;-71
2022/09/13 06:45:20;;;;;;;;;23.00;19.00;;;;;23.18;49.83;100415.68;110408;1264;17487;-71
2022/09/13 06:47:48;;;;;;;;;23.33;21.00;;;;;23.20;49.88;100419.06;110413;1264;14139;-73
2022/09/13 06:50:17;;;;;;;;;23.33;21.00;;;;;23.22;49.88;100425.55;110411;1264;13129;-71
2022/09/13 06:52:44;;;;;;;;;28.33;24.00;;;;;23.20;49.93;100426.54;110404;1264;13404;-72
2022/09/13 06:55:12;;;;;;;;;31.00;26.00;;;;;23.14;50.01;100429.30;110394;1264;13603;-72
2022/09/13 06:57:39;;;;;;;;;33.67;25.67;;;;;23.12;50.21;100424.09;110414;1264;13674;-70
2022/09/13 07:00:06;;;;;;;;;29.00;27.00;;;;;23.11;50.33;100420.05;110416;1264;13028;-73
2022/09/13 07:02:34;;;;;;;;;40.00;33.33;;;;;23.11;50.43;100424.67;110425;1264;14505;-70
2022/09/13 07:05:02;;;;;;;;;46.33;36.33;;;;;23.10;50.35;100417.89;110280;1264;13250;-70
2022/09/13 07:07:29;;;;;;;;;54.00;42.00;;;;;23.05;50.25;100419.63;110356;1265;14761;-72
2022/09/13 07:09:57;;;;;;;;;54.00;42.33;;;;;23.03;50.13;100416.96;110350;1264;14366;-72
2022/09/13 07:12:24;;;;;;;;;56.50;45.00;;;;;23.06;50.16;100415.48;110407;1264;13793;-72
2022/09/13 07:14:52;;;;;;;;;64.50;49.00;;;;;23.06;50.07;100414.55;110396;1264;15006;-72
2022/09/13 07:17:20;;;;;;;;;62.50;48.50;;;;;23.06;50.03;100407.64;110448;1264;11564;-71
2022/09/13 07:19:48;;;;;;;;;63.33;46.33;;;;;23.06;49.99;100409.42;110529;1262;10524;-72
2022/09/13 07:22:15;;;;;;;;;57.67;44.00;;;;;23.05;49.96;100401.80;110514;1262;12616;-71
2022/09/13 07:24:42;;;;;;;;;54.50;41.50;;;;;23.05;50.04;100404.10;110440;1262;15525;-71
2022/09/13 07:27:11;;;;;;;;;40.67;37.00;;;;;23.07;49.99;100402.45;110418;1262;15070;-71
2022/09/13 07:29:39;;;;;;;;;41.67;35.33;;;;;23.08;50.03;100396.27;110385;1262;15184;-72
2022/09/13 07:32:06;;;;;;;;;35.67;31.00;;;;;23.05;49.98;100392.05;110398;1264;13251;-70
2022/09/13 07:34:34;;;;;;;;;30.67;28.00;;;;;22.83;49.99;100392.80;110249;1264;14131;-72
2022/09/13 07:37:02;;;;;;;;;28.33;26.00;;;;;22.57;50.27;100393.02;110421;1264;14225;-71
2022/09/13 07:39:29;;;;;;;;;29.00;26.00;;;;;22.51;50.56;100395.92;110416;1265;13947;-72
2022/09/13 07:41:57;;;;;;;;;25.33;24.33;;;;;22.46;50.67;100395.34;110419;1264;13726;-72
2022/09/13 07:44:24;;;;;;;;;21.00;20.00;;;;;22.41;50.75;100390.91;110423;1264;13415;-71
2022/09/13 07:46:52;;;;;;;;;17.67;16.00;;;;;22.44;50.96;100385.07;110330;1263;14573;-73
2022/09/13 07:49:19;;;;;;;;;19.00;16.00;;;;;22.63;51.16;100380.78;110392;1264;14159;-72
2022/09/13 07:51:49;;;;;;;;;21.00;20.00;;;;;22.58;51.31;100382.08;110400;1263;14692;-71
2022/09/13 07:54:17;;;;;;;;;23.33;21.00;;;;;22.40;51.70;100383.05;110407;1264;15227;-72
2022/09/13 07:56:48;;;;;;;;;21.00;19.67;;;;;22.18;52.20;100380.41;110407;1264;13999;-71
2022/09/13 07:59:16;;;;;;;;;22.33;21.00;;;;;22.30;52.11;100378.26;110316;1263;13225;-72
2022/09/13 08:01:43;;;;;;;;;20.00;16.00;;;;;22.37;52.10;100373.74;110311;1264;14423;-72
2022/09/13 08:04:11;;;;;;;;;19.00;16.50;;;;;22.57;52.03;100374.05;110296;1262;14084;-72
2022/09/13 08:06:38;;;;;;;;;19.00;17.67;;;;;22.74;51.86;100374.23;110439;1264;13811;-72
2022/09/13 08:09:06;;;;;;;;;24.50;21.00;;;;;22.64;51.90;100372.05;110398;1264;14263;-73
2022/09/13 08:11:33;;;;;;;;;20.00;19.00;;;;;22.35;52.48;100369.12;110409;1263;14235;-74
2022/09/13 08:14:01;;;;;;;;;22.33;21.00;;;;;22.31;52.78;100369.62;110450;1263;13358;-72
2022/09/13 08:16:29;;;;;;;;;22.00;21.00;;;;;22.15;53.07;100368.35;110420;1264;13211;-72
2022/09/13 08:18:56;;;;;;;;;21.00;21.00;;;;;21.79;53.72;100372.66;110397;1264;14327;-72
2022/09/13 08:21:24;;;;;;;;;20.00;16.33;;;;;21.85;53.87;100369.41;110365;1265;14170;-72
2022/09/13 08:23:52;;;;;;;;;18.67;16.00;;;;;22.04;53.51;100371.39;110380;1263;14268;-71
2022/09/13 08:26:19;;;;;;;;;18.33;16.00;;;;;22.16;53.33;100370.11;110443;1265;13256;-72
2022/09/13 08:28:47;;;;;;;;;14.33;14.33;;;;;22.29;53.05;100368.77;110367;1263;13780;-73
2022/09/13 08:31:16;;;;;;;;;12.67;11.00;;;;;22.45;52.70;100363.90;110397;1264;14809;-73
2022/09/13 08:33:44;;;;;;;;;12.00;11.00;;;;;22.59;52.30;100361.38;110276;1263;13941;-72
2022/09/13 08:36:11;;;;;;;;;16.00;16.00;;;;;22.72;51.95;100360.71;110362;1264;13124;-72
2022/09/13 08:38:38;;;;;;;;;17.67;17.33;;;;;22.52;52.29;100354.09;110352;1264;15295;-70
2022/09/13 08:41:06;;;;;;;;;16.67;14.33;;;;;22.38;52.75;100353.35;110320;1263;13301;-73
2022/09/13 08:43:33;;;;;;;;;14.33;14.00;;;;;22.42;52.79;100351.20;110286;1264;14709;-73
2022/09/13 08:46:01;;;;;;;;;19.67;17.33;;;;;22.40;52.91;100348.77;110423;1263;13963;-73
2022/09/13 08:48:28;;;;;;;;;16.67;16.00;;;;;22.31;53.12;100346.67;110427;1264;13164;-73
2022/09/13 08:50:56;;;;;;;;;16.33;16.00;;;;;22.29;53.17;100337.85;110449;1264;14564;-73
2022/09/13 08:53:24;;;;;;;;;19.00;17.00;;;;;22.31;52.99;100336.44;110494;1264;11567;-74
2022/09/13 08:55:51;;;;;;;;;14.67;13.33;;;;;22.27;53.12;100337.23;110416;1264;14516;-74
2022/09/13 08:58:18;;;;;;;;;14.00;14.00;;;;;22.31;53.09;100346.30;110378;1265;14338;-73
2022/09/13 09:00:46;;;;;;;;;17.00;15.50;;;;;22.34;53.08;100341.72;110410;1263;14092;-74
2022/09/13 09:03:13;;;;;;;;;13.33;13.33;;;;;22.36;53.04;100339.80;110390;1264;13249;-73
2022/09/13 09:05:41;;;;;;;;;16.00;15.00;;;;;22.39;52.97;100338.30;110355;1265;13277;-71
2022/09/13 09:08:08;;;;;;;;;16.00;16.00;;;;;22.44;52.99;100341.80;110363;1264;13216;-73
2022/09/13 09:10:36;;;;;;;;;16.67;16.00;;;;;22.43;53.04;100340.08;110328;1264;13498;-72
2022/09/13 09:13:04;;;;;;;;;17.00;15.50;;;;;22.36;53.15;100327.66;110402;1264;14222;-74
2022/09/13 09:15:34;;;;;;;;;14.00;14.00;;;;;22.36;53.21;100328.14;110369;1264;13305;-73
2022/09/13 09:18:02;;;;;;;;;16.00;16.00;;;;;22.31;53.24;100326.98;110440;1264;13606;-73
2022/09/13 09:20:31;;;;;;;;;18.33;16.00;;;;;22.09;53.62;100323.07;110410;1264;11337;-73
2022/09/13 09:22:59;;;;;;;;;19.00;16.67;;;;;21.91;54.12;100317.48;110425;1265;13316;-73
2022/09/13 09:25:26;;;;;;;;;19.00;16.00;;;;;22.04;54.11;100319.16;110440;1264;13929;-73
2022/09/13 09:27:53;;;;;;;;;12.00;12.00;;;;;22.08;54.07;100309.39;110411;1264;15039;-74
2022/09/13 09:30:21;;;;;;;;;15.00;15.00;;;;;22.25;53.72;100309.25;110410;1264;14018;-73
2022/09/13 09:32:49;;;;;;;;;18.33;14.67;;;;;22.25;53.81;100303.28;110435;1264;13131;-72
2022/09/13 09:35:16;;;;;;;;;18.00;14.67;;;;;22.24;53.98;100301.85;110460;1264;13119;-73
2022/09/13 09:37:44;;;;;;;;;17.33;15.00;;;;;22.29;53.72;100293.45;110416;1264;14514;-72
2022/09/13 09:40:11;;;;;;;;;12.67;12.67;;;;;22.24;53.71;100285.01;110421;1264;14484;-73
2022/09/13 09:42:39;;;;;;;;;16.00;15.00;;;;;22.19;53.80;100282.83;110353;1264;13820;-73
2022/09/13 09:45:07;;;;;;;;;16.00;15.67;;;;;22.18;53.75;100275.98;110433;1264;13588;-72
2022/09/13 09:47:35;;;;;;;;;14.00;14.00;;;;;22.24;53.55;100267.30;110439;1264;14916;-72
2022/09/13 09:50:09;;;;;;;;;12.67;12.67;;;;;22.30;53.28;100262.68;110470;1264;13114;-73
2022/09/13 09:52:37;;;;;;;;;15.50;12.00;;;;;22.35;53.15;100257.34;110435;1264;14418;-74
2022/09/13 09:55:04;;;;;;;;;13.33;12.00;;;;;22.36;53.05;100253.17;110440;1264;13290;-73
2022/09/13 09:57:32;;;;;;;;;14.33;12.67;;;;;22.38;52.94;100248.36;110412;1264;13262;-74
2022/09/13 09:59:59;;;;;;;;;15.50;13.00;;;;;22.40;52.78;100245.18;110417;1264;13340;-72
2022/09/13 10:02:26;;;;;;;;;13.33;12.00;;;;;22.45;52.69;100243.02;110455;1264;13284;-73
2022/09/13 10:04:54;;;;;;;;;12.00;12.00;;;;;22.39;52.74;100243.88;110399;1264;16873;-73
2022/09/13 10:07:21;;;;;;;;;14.00;12.00;;;;;22.28;52.90;100239.80;110404;1264;14463;-72
2022/09/13 10:09:49;;;;;;;;;11.33;11.33;;;;;22.28;52.91;100240.05;110363;1263;13737;-73
2022/09/13 10:12:17;;;;;;;;;12.00;12.00;;;;;22.33;52.78;100239.05;110416;1265;14748;-73
2022/09/13 10:14:44;;;;;;;;;14.50;14.00;;;;;22.23;52.85;100241.62;110427;1264;14511;-72
2022/09/13 10:17:12;;;;;;;;;11.33;11.00;;;;;22.31;52.78;100246.30;110421;1264;13421;-72
2022/09/13 10:19:40;;;;;;;;;13.33;12.00;;;;;22.40;52.47;100246.48;110373;1264;14263;-72
2022/09/13 10:22:08;;;;;;;;;14.00;14.00;;;;;22.42;52.35;100240.45;110406;1265;14380;-74
2022/09/13 10:24:36;;;;;;;;;15.33;13.33;;;;;22.46;52.21;100236.06;110347;1262;13223;-71
2022/09/13 10:27:04;;;;;;;;;11.00;10.33;;;;;22.50;52.09;100231.38;110390;1264;13763;-75
2022/09/13 10:29:31;;;;;;;;;11.00;11.00;;;;;22.50;52.04;100226.94;110420;1264;13079;-71
2022/09/13 10:32:02;;;;;;;;;11.00;10.33;;;;;22.50;52.07;100217.82;110423;1264;13233;-70
2022/09/13 10:34:30;;;;;;;;;14.33;11.00;;;;;22.50;52.09;100213.15;110283;1264;13252;-72
2022/09/13 10:36:57;;;;;;;;;14.00;12.00;;;;;22.48;52.13;100214.27;110302;1265;14868;-70
2022/09/13 10:39:25;;;;;;;;;10.33;8.67;;;;;22.45;52.08;100214.33;110438;1264;14746;-73
2022/09/13 10:41:52;;;;;;;;;11.67;11.33;;;;;22.42;52.09;100208.90;110426;1265;14259;-73
2022/09/13 10:44:20;;;;;;;;;11.33;11.00;;;;;22.40;52.09;100206.73;110429;1264;13058;-72
2022/09/13 10:46:47;;;;;;;;;11.33;11.00;;;;;22.44;52.04;100199.84;110432;1264;13352;-73
2022/09/13 10:49:14;;;;;;;;;10.33;10.00;;;;;22.48;52.03;100189.52;110283;1264;14749;-74
2022/09/13 10:51:42;;;;;;;;;12.67;12.00;;;;;22.54;52.05;100183.77;110314;1264;14168;-71
2022/09/13 10:54:10;;;;;;;;;11.00;10.67;;;;;22.53;52.16;100176.08;110365;1264;13196;-73
2022/09/13 10:56:38;;;;;;;;;10.33;9.67;;;;;22.49;52.54;100167.59;110353;1263;14473;-71
2022/09/13 10:59:05;;;;;;;;;11.00;10.33;;;;;22.46;52.80;100159.98;110407;1264;13141;-71
2022/09/13 11:01:33;;;;;;;;;15.00;12.00;;;;;22.48;52.81;100160.27;110400;1264;12999;-70
2022/09/13 11:04:00;;;;;;;;;14.00;12.67;;;;;22.48;52.91;100166.66;110330;1264;13808;-73
2022/09/13 11:06:27;;;;;;;;;12.67;12.00;;;;;22.46;52.98;100168.68;110398;1264;14766;-72
2022/09/13 11:08:55;;;;;;;;;11.67;11.00;;;;;22.51;52.95;100169.88;110372;1264;13791;-71
2022/09/13 11:11:22;;;;;;;;;12.67;11.67;;;;;22.58;52.88;100172.48;110327;1264;11559;-71